Denison, Iowa
Current Conditions -  °F | °C
As of 12:15 AM on Monday 26 Jan 2015 (Local Time) from KDNS Reporting Station
Overcast Overcast  
Wind Chill: 26°   Ceiling: 1400
Heat Index: 32°   Visibility: 10mi
Dew Point: 32°   Wind: 6mph
Humidity: 100%   Direction: 220°SW
Pressure: 30"   Gusts: NA
Location:  42.01°N, 95.35°W
Report Text: KDNS 260615Z AUTO 22005KT 10SM OVC014 00/00 A3000 RMK AO2
Loading
Personal Weather Stations






























Interactive Weather Map New forecast layout! Learn more

10-Day Weather Forecast

Advertisements
Track Severe Weather on mobile